createdAt,value
2022-09-26T00:00:00.415Z,226.5
2022-09-26T00:05:00.330Z,186.6
2022-09-26T00:10:00.397Z,201.5
2022-09-26T00:15:00.347Z,230.1
2022-09-26T00:20:00.377Z,237.3
2022-09-26T00:25:00.402Z,211.1
2022-09-26T00:30:00.397Z,203.5
2022-09-26T00:35:00.352Z,201.8
2022-09-26T00:40:00.400Z,191.6
2022-09-26T00:45:00.345Z,206.1
2022-09-26T00:50:00.486Z,224.3
2022-09-26T00:55:00.376Z,232.7
2022-09-26T01:00:00.516Z,210.7
2022-09-26T01:05:00.342Z,215.1
2022-09-26T01:10:00.411Z,200.5
2022-09-26T01:15:00.396Z,230.6
2022-09-26T01:20:00.383Z,219.0
2022-09-26T01:25:00.352Z,225.9
2022-09-26T01:30:00.425Z,228.7
2022-09-26T01:35:00.337Z,208.1
2022-09-26T01:40:00.484Z,229.8
2022-09-26T01:45:00.382Z,237.9
2022-09-26T01:50:00.434Z,240.2
2022-09-26T01:55:00.374Z,241.3
2022-09-26T02:00:00.405Z,215.7
2022-09-26T02:05:00.359Z,217.9
2022-09-26T02:10:00.353Z,248.2
2022-09-26T02:15:00.380Z,233.8
2022-09-26T02:20:00.403Z,199.4
2022-09-26T02:25:00.355Z,224.7
2022-09-26T02:30:00.925Z,232.4
2022-09-26T02:35:00.371Z,221.8
2022-09-26T02:40:00.363Z,202.1
2022-09-26T02:45:00.408Z,202.4
2022-09-26T02:50:01.391Z,202.4
2022-09-26T02:55:00.334Z,202.5
2022-09-26T03:00:00.398Z,202.5
2022-09-26T03:05:00.727Z,193.5
2022-09-26T03:10:00.396Z,187.6
2022-09-26T03:15:00.352Z,202.3
2022-09-26T03:20:00.366Z,202.5
2022-09-26T03:25:00.348Z,202.5
2022-09-26T03:30:00.422Z,198.1
2022-09-26T03:35:00.330Z,181.2
2022-09-26T03:40:00.420Z,187.9
2022-09-26T03:45:00.414Z,203.1
2022-09-26T03:50:00.373Z,160.5
2022-09-26T03:55:00.337Z,196.8
2022-09-26T04:00:00.524Z,204.9
2022-09-26T04:05:00.378Z,193.4
2022-09-26T04:10:00.376Z,197.3
2022-09-26T04:15:00.376Z,202.1
2022-09-26T04:20:00.421Z,202.4
2022-09-26T04:25:00.388Z,197.2
2022-09-26T04:30:00.419Z,202.0
2022-09-26T04:35:00.349Z,182.1
2022-09-26T04:40:00.384Z,178.7
2022-09-26T04:45:00.389Z,213.8
2022-09-26T04:50:00.408Z,202.8
2022-09-26T04:55:00.381Z,198.2
2022-09-26T05:00:00.419Z,214.2
2022-09-26T05:05:00.369Z,202.6
2022-09-26T05:10:00.402Z,202.5
2022-09-26T05:15:00.367Z,202.5
2022-09-26T05:20:00.413Z,197.4
2022-09-26T05:25:00.382Z,163.3
2022-09-26T05:30:00.406Z,183.5
2022-09-26T05:35:00.343Z,207.0
2022-09-26T05:40:00.433Z,197.1
2022-09-26T05:45:00.366Z,194.9
2022-09-26T05:50:00.391Z,180.5
2022-09-26T05:55:00.386Z,184.6
2022-09-26T06:00:00.392Z,202.5
2022-09-26T06:05:00.347Z,193.9
2022-09-26T06:10:00.405Z,193.2
2022-09-26T06:15:00.364Z,198.1
2022-09-26T06:20:00.412Z,188.9
2022-09-26T06:25:00.346Z,194.6
2022-09-26T06:30:00.362Z,210.4
2022-09-26T06:35:00.352Z,202.7
2022-09-26T06:40:00.378Z,197.8
2022-09-26T06:45:00.382Z,197.6
2022-09-26T06:50:00.396Z,189.6
2022-09-26T06:55:00.350Z,185.5
2022-09-26T07:00:00.432Z,199.8
2022-09-26T07:05:00.371Z,184.5
2022-09-26T07:10:00.661Z,189.0
2022-09-26T07:15:00.507Z,196.6
2022-09-26T07:20:00.437Z,200.9
2022-09-26T07:25:00.370Z,189.0
2022-09-26T07:30:00.501Z,192.1
2022-09-26T07:35:00.360Z,187.1
2022-09-26T07:40:02.408Z,176.1
2022-09-26T07:45:29.858Z,197.7
2022-09-26T07:50:00.360Z,206.6
2022-09-26T07:55:00.393Z,198.1
2022-09-26T08:00:00.643Z,201.6
2022-09-26T08:05:01.563Z,193.0
2022-09-26T08:10:00.537Z,217.4
2022-09-26T08:15:00.463Z,197.8
2022-09-26T08:20:00.392Z,201.6
2022-09-26T08:25:00.364Z,194.2
2022-09-26T08:30:00.484Z,185.3
2022-09-26T08:35:00.518Z,192.8
2022-09-26T08:40:00.447Z,173.6
2022-09-26T08:45:00.460Z,185.4
2022-09-26T08:50:00.433Z,188.7
2022-09-26T08:55:00.396Z,210.1
2022-09-26T09:00:00.414Z,212.0
2022-09-26T17:15:00.410Z,181.2
2022-09-26T17:20:00.874Z,199.3
2022-09-26T17:25:00.394Z,189.6
2022-09-26T17:30:00.457Z,177.7
2022-09-26T17:35:00.360Z,178.6
2022-09-26T17:40:00.395Z,165.3
2022-09-26T17:45:00.357Z,173.1
2022-09-26T17:50:00.373Z,187.4
2022-09-26T17:55:00.360Z,195.1
2022-09-26T18:00:00.406Z,186.5
2022-09-26T18:05:00.364Z,178.2
2022-09-26T18:10:00.393Z,192.8
2022-09-26T18:15:00.414Z,182.2
2022-09-26T18:20:00.404Z,189.9
2022-09-26T18:25:00.431Z,193.9
2022-09-26T18:30:00.381Z,190.4
2022-09-26T18:35:00.426Z,176.5
2022-09-26T18:40:04.886Z,198.9
2022-09-26T18:45:00.380Z,186.3
2022-09-26T18:50:00.429Z,186.8
2022-09-26T18:55:00.341Z,185.5
2022-09-26T19:00:00.505Z,188.5
2022-09-26T19:05:00.353Z,186.7
2022-09-26T19:10:00.398Z,182.3
2022-09-26T19:15:00.392Z,183.9
2022-09-26T19:20:00.366Z,193.5
2022-09-26T19:25:00.389Z,179.1
2022-09-26T19:30:00.411Z,193.7
2022-09-26T19:35:00.387Z,184.2
2022-09-26T19:40:00.368Z,187.0
2022-09-26T19:45:00.333Z,193.8
2022-09-26T19:50:00.496Z,188.2
2022-09-26T19:55:00.339Z,181.6
2022-09-26T20:00:00.405Z,191.3
2022-09-26T20:05:00.354Z,175.5
2022-09-26T20:10:00.505Z,187.3
2022-09-26T20:15:00.396Z,184.0
2022-09-26T20:20:00.391Z,184.0
2022-09-26T20:25:00.484Z,199.8
2022-09-26T20:30:00.400Z,183.3
2022-09-26T20:35:00.367Z,186.3
2022-09-26T20:40:00.455Z,182.0
2022-09-26T20:45:00.386Z,185.9
2022-09-26T20:50:00.422Z,193.9
2022-09-26T20:55:00.395Z,170.5
2022-09-26T21:00:00.436Z,190.0
2022-09-26T21:05:00.557Z,173.0
2022-09-26T21:10:00.426Z,184.1
2022-09-26T21:15:00.386Z,177.8
2022-09-26T21:20:00.393Z,189.8
2022-09-26T21:25:00.354Z,185.7
2022-09-26T21:30:00.423Z,171.1
2022-09-26T21:35:00.325Z,179.3
2022-09-26T21:40:00.380Z,189.7
2022-09-26T21:45:00.392Z,172.1
2022-09-26T21:50:00.393Z,173.3
2022-09-26T21:55:00.339Z,184.8
2022-09-26T22:00:00.406Z,177.2
2022-09-26T22:05:00.315Z,198.2
2022-09-26T22:10:00.362Z,185.2
2022-09-26T22:15:00.375Z,198.2
2022-09-26T22:20:00.386Z,163.6
2022-09-26T22:25:00.400Z,174.6
2022-09-26T22:30:00.427Z,171.3
2022-09-26T22:35:00.367Z,188.3
2022-09-26T22:40:00.403Z,194.4
2022-09-26T22:45:00.366Z,177.7
2022-09-26T22:50:00.399Z,170.6
2022-09-26T22:55:00.356Z,183.9
2022-09-26T23:00:00.404Z,171.9
2022-09-26T23:05:00.315Z,182.4
2022-09-26T23:10:00.504Z,176.0
2022-09-26T23:15:00.385Z,167.5
2022-09-26T23:20:00.396Z,185.5
2022-09-26T23:25:00.361Z,182.2
2022-09-26T23:30:00.386Z,183.9
2022-09-26T23:35:00.335Z,184.0
2022-09-26T23:40:00.511Z,192.7
2022-09-26T23:45:00.386Z,157.2
2022-09-26T23:50:00.411Z,167.6
2022-09-26T23:55:00.357Z,174.9
